DLH4711 EHAM-EDDH
Flight info
| Callsign | DLH4711 |
|---|---|
| Flight time | 0h 45m |
| Altitude | 31000 |
| Route | ANDIK M105 RIBSO RIBSO3S |
| Aircraft | A320/M-SDE3FGHIRWY/LB1 |
Departure
| Time | 2026-04-19 23:05 |
|---|---|
| Airport | Amsterdam Airport Schiphol (EHAM) |
Arrival
| Time | 2026-04-19 23:50 |
|---|---|
| Airport | Hamburg Helmut Schmidt Airport (EDDH) |
| Time | Latitude | Longitude | Altitude | Speed | Heading |
|---|---|---|---|---|---|
| 2026-04-19 22:17 | 52.30442 | 4.76321 | -6 ft | 0 kts | 238° |
| 2026-04-19 22:47 | 52.30442 | 4.76323 | -6 ft | 1 kts | 238° |
| 2026-04-19 22:48 | 52.30451 | 4.76346 | -6 ft | 3 kts | 239° |
| 2026-04-19 22:48 | 52.30462 | 4.76373 | -6 ft | 3 kts | 225° |
| 2026-04-19 22:48 | 52.30473 | 4.76387 | -6 ft | 2 kts | 170° |
| 2026-04-19 22:48 | 52.30478 | 4.76386 | -6 ft | 0 kts | 159° |
| 2026-04-19 22:51 | 52.30467 | 4.76398 | -6 ft | 6 kts | 144° |
| 2026-04-19 22:51 | 52.30413 | 4.76456 | -6 ft | 11 kts | 148° |
| 2026-04-19 22:52 | 52.30350 | 4.76520 | -6 ft | 10 kts | 148° |
| 2026-04-19 22:52 | 52.30293 | 4.76512 | -6 ft | 8 kts | 221° |
| 2026-04-19 22:52 | 52.30262 | 4.76437 | -6 ft | 9 kts | 238° |
| 2026-04-19 22:52 | 52.30212 | 4.76307 | -6 ft | 18 kts | 237° |
| 2026-04-19 22:53 | 52.30133 | 4.76102 | -6 ft | 24 kts | 238° |
| 2026-04-19 22:53 | 52.30041 | 4.75861 | -6 ft | 26 kts | 238° |
| 2026-04-19 22:53 | 52.29955 | 4.75636 | -6 ft | 22 kts | 238° |
| 2026-04-19 22:53 | 52.29869 | 4.75414 | -6 ft | 24 kts | 238° |
| 2026-04-19 22:54 | 52.29837 | 4.75201 | -6 ft | 21 kts | 296° |
| 2026-04-19 22:54 | 52.29934 | 4.75017 | -6 ft | 22 kts | 312° |
| 2026-04-19 22:54 | 52.30035 | 4.74832 | -6 ft | 23 kts | 311° |
| 2026-04-19 22:54 | 52.30141 | 4.74636 | -6 ft | 23 kts | 311° |
| 2026-04-19 22:55 | 52.30248 | 4.74438 | -6 ft | 20 kts | 311° |
| 2026-04-19 22:55 | 52.30331 | 4.74271 | -6 ft | 18 kts | 292° |
| 2026-04-19 22:55 | 52.30273 | 4.74123 | -6 ft | 17 kts | 202° |
| 2026-04-19 22:55 | 52.30165 | 4.74067 | -6 ft | 16 kts | 190° |
| 2026-04-19 22:56 | 52.30050 | 4.74021 | -6 ft | 7 kts | 206° |
| 2026-04-19 22:56 | 52.30009 | 4.73972 | -6 ft | 9 kts | 223° |
| 2026-04-19 22:56 | 52.29961 | 4.73848 | -6 ft | 18 kts | 244° |
| 2026-04-19 22:56 | 52.29907 | 4.73610 | -6 ft | 25 kts | 271° |
| 2026-04-19 22:57 | 52.29925 | 4.73374 | -6 ft | 20 kts | 299° |
| 2026-04-19 22:57 | 52.30041 | 4.73290 | -6 ft | 20 kts | 1° |
| 2026-04-19 22:57 | 52.30184 | 4.73304 | -6 ft | 21 kts | 3° |
| 2026-04-19 22:57 | 52.30341 | 4.73318 | -6 ft | 24 kts | 5° |
| 2026-04-19 22:58 | 52.30515 | 4.73335 | -6 ft | 25 kts | 3° |
| 2026-04-19 22:58 | 52.30688 | 4.73351 | -6 ft | 25 kts | 3° |
| 2026-04-19 22:58 | 52.30866 | 4.73367 | -6 ft | 26 kts | 3° |
| 2026-04-19 22:58 | 52.31044 | 4.73384 | -6 ft | 26 kts | 4° |
| 2026-04-19 22:59 | 52.31224 | 4.73400 | -6 ft | 26 kts | 3° |
| 2026-04-19 22:59 | 52.31408 | 4.73417 | -6 ft | 27 kts | 3° |
| 2026-04-19 22:59 | 52.31592 | 4.73434 | -6 ft | 27 kts | 3° |
| 2026-04-19 22:59 | 52.31770 | 4.73451 | -6 ft | 25 kts | 3° |
| 2026-04-19 23:00 | 52.31942 | 4.73467 | -6 ft | 25 kts | 3° |
| 2026-04-19 23:00 | 52.32094 | 4.73354 | -6 ft | 25 kts | 316° |
| 2026-04-19 23:00 | 52.32224 | 4.73168 | -6 ft | 25 kts | 319° |
| 2026-04-19 23:00 | 52.32357 | 4.72981 | -6 ft | 25 kts | 319° |
| 2026-04-19 23:01 | 52.32489 | 4.72796 | -6 ft | 23 kts | 319° |
| 2026-04-19 23:01 | 52.32613 | 4.72622 | -6 ft | 24 kts | 320° |
| 2026-04-19 23:01 | 52.32732 | 4.72428 | -6 ft | 25 kts | 311° |
| 2026-04-19 23:01 | 52.32847 | 4.72212 | -6 ft | 25 kts | 311° |
| 2026-04-19 23:02 | 52.32966 | 4.71994 | -6 ft | 26 kts | 311° |
| 2026-04-19 23:02 | 52.33086 | 4.71773 | -6 ft | 25 kts | 311° |
| 2026-04-19 23:02 | 52.33156 | 4.71560 | -6 ft | 21 kts | 259° |
| 2026-04-19 23:02 | 52.33062 | 4.71381 | -6 ft | 22 kts | 221° |
| 2026-04-19 23:03 | 52.32948 | 4.71218 | -6 ft | 20 kts | 221° |
| 2026-04-19 23:03 | 52.32893 | 4.71138 | -6 ft | 9 kts | 225° |
| 2026-04-19 23:03 | 52.32868 | 4.71061 | -6 ft | 8 kts | 258° |
| 2026-04-19 23:03 | 52.32871 | 4.70940 | -5 ft | 12 kts | 276° |
| 2026-04-19 23:04 | 52.32941 | 4.70891 | -5 ft | 13 kts | 3° |
| 2026-04-19 23:04 | 52.33062 | 4.70902 | -6 ft | 32 kts | 4° |
| 2026-04-19 23:04 | 52.33526 | 4.70944 | -4 ft | 98 kts | 3° |
| 2026-04-19 23:04 | 52.34391 | 4.71022 | -7 ft | 150 kts | 3° |
| 2026-04-19 23:05 | 52.35514 | 4.71125 | 402 ft | 161 kts | 2° |
| 2026-04-19 23:05 | 52.36628 | 4.71209 | 1190 ft | 159 kts | 2° |
| 2026-04-19 23:05 | 52.37722 | 4.71294 | 1977 ft | 156 kts | 3° |
| 2026-04-19 23:05 | 52.38840 | 4.71393 | 2478 ft | 168 kts | 2° |
| 2026-04-19 23:06 | 52.40051 | 4.71500 | 2948 ft | 180 kts | 2° |
| 2026-04-19 23:06 | 52.41334 | 4.71614 | 3478 ft | 188 kts | 2° |
| 2026-04-19 23:06 | 52.42665 | 4.71730 | 4042 ft | 195 kts | 2° |
| 2026-04-19 23:06 | 52.44055 | 4.71854 | 4480 ft | 212 kts | 2° |
| 2026-04-19 23:07 | 52.45610 | 4.72012 | 4873 ft | 235 kts | 2° |
| 2026-04-19 23:07 | 52.47315 | 4.72193 | 5430 ft | 252 kts | 1° |
| 2026-04-19 23:07 | 52.49082 | 4.72378 | 6267 ft | 257 kts | 1° |
| 2026-04-19 23:07 | 52.50274 | 4.72499 | 6854 ft | 259 kts | 1° |
| 2026-04-19 23:08 | 52.52079 | 4.72881 | 7649 ft | 266 kts | 14° |
| 2026-04-19 23:08 | 52.53755 | 4.74252 | 8449 ft | 275 kts | 35° |
| 2026-04-19 23:08 | 52.55049 | 4.76615 | 9272 ft | 284 kts | 57° |
| 2026-04-19 23:08 | 52.55783 | 4.79637 | 10089 ft | 291 kts | 70° |
| 2026-04-19 23:09 | 52.56390 | 4.82856 | 10663 ft | 304 kts | 70° |
| 2026-04-19 23:09 | 52.57052 | 4.86355 | 10904 ft | 328 kts | 70° |
| 2026-04-19 23:09 | 52.57747 | 4.90016 | 11093 ft | 350 kts | 70° |
| 2026-04-19 23:09 | 52.58592 | 4.93848 | 11575 ft | 359 kts | 63° |
| 2026-04-19 23:10 | 52.59846 | 4.97434 | 12225 ft | 362 kts | 52° |
| 2026-04-19 23:10 | 52.61395 | 5.00715 | 12922 ft | 365 kts | 49° |
| 2026-04-19 23:10 | 52.62987 | 5.04027 | 13593 ft | 370 kts | 49° |
| 2026-04-19 23:10 | 52.64576 | 5.07333 | 14228 ft | 375 kts | 49° |
| 2026-04-19 23:11 | 52.66201 | 5.10731 | 14849 ft | 379 kts | 50° |
| 2026-04-19 23:11 | 52.67837 | 5.14171 | 15476 ft | 382 kts | 50° |
| 2026-04-19 23:11 | 52.69480 | 5.17637 | 16094 ft | 385 kts | 50° |
| 2026-04-19 23:11 | 52.71137 | 5.21136 | 16701 ft | 389 kts | 50° |
| 2026-04-19 23:12 | 52.72797 | 5.24691 | 17303 ft | 393 kts | 52° |
| 2026-04-19 23:12 | 52.74194 | 5.28597 | 17899 ft | 399 kts | 63° |
| 2026-04-19 23:12 | 52.75219 | 5.32893 | 18492 ft | 404 kts | 69° |
| 2026-04-19 23:12 | 52.76156 | 5.37249 | 19025 ft | 407 kts | 68° |
| 2026-04-19 23:13 | 52.77107 | 5.41675 | 19551 ft | 410 kts | 68° |
| 2026-04-19 23:13 | 52.78065 | 5.46132 | 20086 ft | 413 kts | 68° |
| 2026-04-19 23:13 | 52.79031 | 5.50626 | 20607 ft | 416 kts | 68° |
| 2026-04-19 23:13 | 52.80003 | 5.55145 | 21116 ft | 419 kts | 69° |
| 2026-04-19 23:14 | 52.80967 | 5.59647 | 21590 ft | 422 kts | 69° |
| 2026-04-19 23:14 | 52.81951 | 5.64251 | 22066 ft | 425 kts | 69° |
| 2026-04-19 23:14 | 52.82940 | 5.68894 | 22540 ft | 428 kts | 69° |
| 2026-04-19 23:14 | 52.83931 | 5.73565 | 23001 ft | 430 kts | 69° |
| 2026-04-19 23:15 | 52.84916 | 5.78194 | 23452 ft | 433 kts | 69° |
| 2026-04-19 23:15 | 52.85921 | 5.82922 | 23877 ft | 436 kts | 69° |
| 2026-04-19 23:15 | 52.86927 | 5.87674 | 24242 ft | 438 kts | 69° |
| 2026-04-19 23:15 | 52.87924 | 5.92402 | 24607 ft | 439 kts | 69° |
| 2026-04-19 23:16 | 52.88929 | 5.97194 | 24954 ft | 441 kts | 69° |
| 2026-04-19 23:16 | 52.89935 | 6.02014 | 25288 ft | 444 kts | 69° |
| 2026-04-19 23:16 | 52.90945 | 6.06868 | 25615 ft | 446 kts | 69° |
| 2026-04-19 23:16 | 52.91962 | 6.11746 | 25937 ft | 448 kts | 70° |
| 2026-04-19 23:17 | 52.92983 | 6.16636 | 26267 ft | 450 kts | 70° |
| 2026-04-19 23:17 | 52.94012 | 6.21570 | 26571 ft | 452 kts | 70° |
| 2026-04-19 23:17 | 52.95037 | 6.26517 | 26872 ft | 455 kts | 70° |
| 2026-04-19 23:17 | 52.96065 | 6.31499 | 27169 ft | 457 kts | 70° |
| 2026-04-19 23:18 | 52.97082 | 6.36440 | 27447 ft | 459 kts | 70° |
| 2026-04-19 23:18 | 52.98115 | 6.41464 | 27729 ft | 461 kts | 70° |
| 2026-04-19 23:18 | 52.99153 | 6.46525 | 27999 ft | 463 kts | 70° |
| 2026-04-19 23:18 | 53.00189 | 6.51600 | 28259 ft | 465 kts | 70° |
| 2026-04-19 23:19 | 53.01226 | 6.56708 | 28514 ft | 467 kts | 70° |
| 2026-04-19 23:19 | 53.02266 | 6.61840 | 28751 ft | 469 kts | 70° |
| 2026-04-19 23:19 | 53.03311 | 6.66986 | 29017 ft | 470 kts | 70° |
| 2026-04-19 23:19 | 53.04344 | 6.72074 | 29319 ft | 470 kts | 70° |
| 2026-04-19 23:20 | 53.05384 | 6.77219 | 29664 ft | 469 kts | 70° |
| 2026-04-19 23:20 | 53.06421 | 6.82373 | 30033 ft | 468 kts | 71° |
| 2026-04-19 23:20 | 53.07451 | 6.87502 | 30407 ft | 466 kts | 71° |
| 2026-04-19 23:20 | 53.08466 | 6.92564 | 30686 ft | 465 kts | 71° |
| 2026-04-19 23:21 | 53.09487 | 6.97673 | 30943 ft | 465 kts | 71° |
| 2026-04-19 23:21 | 53.10507 | 7.02787 | 31171 ft | 466 kts | 71° |
| 2026-04-19 23:21 | 53.12541 | 7.13066 | 31244 ft | 466 kts | 71° |
| 2026-04-19 23:22 | 53.14560 | 7.23306 | 31239 ft | 464 kts | 72° |
| 2026-04-19 23:22 | 53.16548 | 7.33461 | 31240 ft | 463 kts | 72° |
| 2026-04-19 23:23 | 53.18540 | 7.43690 | 31234 ft | 463 kts | 72° |
| 2026-04-19 23:23 | 53.20531 | 7.53936 | 31221 ft | 463 kts | 72° |
| 2026-04-19 23:24 | 53.22511 | 7.64170 | 31203 ft | 463 kts | 72° |
| 2026-04-19 23:24 | 53.24472 | 7.74353 | 31196 ft | 462 kts | 72° |
| 2026-04-19 23:25 | 53.26427 | 7.84590 | 31196 ft | 461 kts | 73° |
| 2026-04-19 23:25 | 53.28364 | 7.94802 | 31197 ft | 461 kts | 73° |
| 2026-04-19 23:26 | 53.30300 | 8.05038 | 31191 ft | 461 kts | 73° |
| 2026-04-19 23:26 | 53.32214 | 8.15208 | 31188 ft | 460 kts | 73° |
| 2026-04-19 23:27 | 53.34301 | 8.25308 | 31162 ft | 448 kts | 70° |
| 2026-04-19 23:27 | 53.35418 | 8.30074 | 31050 ft | 432 kts | 69° |
| 2026-04-19 23:27 | 53.36518 | 8.34616 | 30927 ft | 418 kts | 69° |
| 2026-04-19 23:28 | 53.37594 | 8.39067 | 30801 ft | 405 kts | 70° |
| 2026-04-19 23:28 | 53.38618 | 8.43371 | 30187 ft | 393 kts | 70° |
| 2026-04-19 23:28 | 53.39634 | 8.47730 | 28210 ft | 411 kts | 71° |
| 2026-04-19 23:28 | 53.40703 | 8.52345 | 26506 ft | 435 kts | 69° |
| 2026-04-19 23:29 | 53.41894 | 8.57081 | 25171 ft | 446 kts | 68° |
| 2026-04-19 23:29 | 53.43183 | 8.61876 | 23871 ft | 448 kts | 66° |
| 2026-04-19 23:29 | 53.44499 | 8.66587 | 22306 ft | 442 kts | 66° |
| 2026-04-19 23:29 | 53.45770 | 8.71077 | 21740 ft | 418 kts | 66° |
| 2026-04-19 23:30 | 53.46986 | 8.75422 | 21217 ft | 407 kts | 66° |
| 2026-04-19 23:30 | 53.48165 | 8.79740 | 20622 ft | 404 kts | 66° |
| 2026-04-19 23:30 | 53.49316 | 8.84024 | 20044 ft | 401 kts | 67° |
| 2026-04-19 23:30 | 53.50449 | 8.88285 | 19547 ft | 396 kts | 66° |
| 2026-04-19 23:31 | 53.51538 | 8.92399 | 19400 ft | 382 kts | 66° |
| 2026-04-19 23:31 | 53.52622 | 8.96325 | 19265 ft | 356 kts | 61° |
| 2026-04-19 23:31 | 53.53912 | 8.99732 | 18983 ft | 338 kts | 52° |
| 2026-04-19 23:31 | 53.55464 | 9.02656 | 18697 ft | 332 kts | 42° |
| 2026-04-19 23:32 | 53.57234 | 9.05114 | 18345 ft | 327 kts | 33° |
| 2026-04-19 23:32 | 53.59095 | 9.07307 | 17922 ft | 325 kts | 33° |
| 2026-04-19 23:32 | 53.60926 | 9.09489 | 17335 ft | 320 kts | 34° |
| 2026-04-19 23:32 | 53.62736 | 9.11660 | 16609 ft | 318 kts | 34° |
| 2026-04-19 23:33 | 53.64505 | 9.13790 | 15929 ft | 315 kts | 34° |
| 2026-04-19 23:33 | 53.66277 | 9.15931 | 15296 ft | 310 kts | 35° |
| 2026-04-19 23:33 | 53.68015 | 9.18032 | 14733 ft | 305 kts | 34° |
| 2026-04-19 23:33 | 53.69718 | 9.20084 | 14275 ft | 296 kts | 33° |
| 2026-04-19 23:34 | 53.71370 | 9.22069 | 13841 ft | 287 kts | 33° |
| 2026-04-19 23:34 | 53.72974 | 9.23998 | 13395 ft | 279 kts | 33° |
| 2026-04-19 23:34 | 53.74535 | 9.25878 | 12987 ft | 275 kts | 34° |
| 2026-04-19 23:34 | 53.76102 | 9.27766 | 12546 ft | 277 kts | 33° |
| 2026-04-19 23:35 | 53.77680 | 9.29669 | 12110 ft | 280 kts | 33° |
| 2026-04-19 23:35 | 53.79194 | 9.31753 | 11659 ft | 283 kts | 43° |
| 2026-04-19 23:35 | 53.80473 | 9.34329 | 11204 ft | 287 kts | 53° |
| 2026-04-19 23:35 | 53.81427 | 9.37252 | 10955 ft | 285 kts | 64° |
| 2026-04-19 23:36 | 53.82053 | 9.40451 | 10846 ft | 287 kts | 75° |
| 2026-04-19 23:36 | 53.82455 | 9.43761 | 10689 ft | 286 kts | 75° |
| 2026-04-19 23:36 | 53.82853 | 9.47065 | 10533 ft | 286 kts | 75° |
| 2026-04-19 23:36 | 53.83252 | 9.50364 | 10371 ft | 285 kts | 75° |
| 2026-04-19 23:37 | 53.83653 | 9.53664 | 10216 ft | 284 kts | 75° |
| 2026-04-19 23:37 | 53.84044 | 9.56900 | 10060 ft | 283 kts | 75° |
| 2026-04-19 23:37 | 53.84439 | 9.60177 | 9894 ft | 283 kts | 75° |
| 2026-04-19 23:37 | 53.84830 | 9.63443 | 9735 ft | 282 kts | 75° |
| 2026-04-19 23:38 | 53.85219 | 9.66703 | 9579 ft | 282 kts | 75° |
| 2026-04-19 23:38 | 53.85606 | 9.69956 | 9424 ft | 280 kts | 75° |
| 2026-04-19 23:38 | 53.85984 | 9.73146 | 9272 ft | 271 kts | 75° |
| 2026-04-19 23:38 | 53.86341 | 9.76175 | 9137 ft | 260 kts | 75° |
| 2026-04-19 23:39 | 53.86655 | 9.79138 | 8979 ft | 252 kts | 81° |
| 2026-04-19 23:39 | 53.86593 | 9.82090 | 8777 ft | 249 kts | 93° |
| 2026-04-19 23:39 | 53.86380 | 9.85018 | 8644 ft | 249 kts | 92° |
| 2026-04-19 23:39 | 53.86175 | 9.87934 | 8510 ft | 249 kts | 92° |
| 2026-04-19 23:40 | 53.85971 | 9.90860 | 8379 ft | 249 kts | 92° |
| 2026-04-19 23:40 | 53.85766 | 9.93770 | 8248 ft | 249 kts | 92° |
| 2026-04-19 23:40 | 53.85561 | 9.96680 | 8117 ft | 249 kts | 92° |
| 2026-04-19 23:40 | 53.85357 | 9.99551 | 7989 ft | 248 kts | 92° |
| 2026-04-19 23:41 | 53.85151 | 10.02459 | 7861 ft | 248 kts | 92° |
| 2026-04-19 23:41 | 53.84942 | 10.05367 | 7731 ft | 247 kts | 92° |
| 2026-04-19 23:41 | 53.84732 | 10.08265 | 7602 ft | 247 kts | 92° |
| 2026-04-19 23:41 | 53.84526 | 10.11127 | 7475 ft | 247 kts | 92° |
| 2026-04-19 23:42 | 53.84318 | 10.14016 | 7345 ft | 247 kts | 92° |
| 2026-04-19 23:42 | 53.84188 | 10.16901 | 7218 ft | 243 kts | 81° |
| 2026-04-19 23:42 | 53.84516 | 10.19646 | 6981 ft | 235 kts | 64° |
| 2026-04-19 23:42 | 53.85293 | 10.22021 | 6626 ft | 228 kts | 47° |
| 2026-04-19 23:43 | 53.86130 | 10.24272 | 6341 ft | 229 kts | 69° |
| 2026-04-19 23:43 | 53.86142 | 10.27020 | 5832 ft | 245 kts | 102° |
| 2026-04-19 23:43 | 53.85265 | 10.29563 | 5304 ft | 258 kts | 133° |
| 2026-04-19 23:43 | 53.83695 | 10.31094 | 4780 ft | 267 kts | 167° |
| 2026-04-19 23:44 | 53.81901 | 10.30996 | 4349 ft | 256 kts | 201° |
| 2026-04-19 23:44 | 53.80294 | 10.29990 | 4295 ft | 240 kts | 202° |
| 2026-04-19 23:44 | 53.78762 | 10.29044 | 4230 ft | 228 kts | 202° |
| 2026-04-19 23:44 | 53.77417 | 10.27823 | 4202 ft | 211 kts | 222° |
| 2026-04-19 23:45 | 53.76429 | 10.26131 | 4062 ft | 197 kts | 235° |
| 2026-04-19 23:45 | 53.75568 | 10.24361 | 3825 ft | 193 kts | 235° |
| 2026-04-19 23:45 | 53.74720 | 10.22620 | 3573 ft | 191 kts | 235° |
| 2026-04-19 23:45 | 53.73880 | 10.20900 | 3319 ft | 188 kts | 235° |
| 2026-04-19 23:46 | 53.73053 | 10.19210 | 3059 ft | 185 kts | 235° |
| 2026-04-19 23:46 | 53.72248 | 10.17568 | 2806 ft | 177 kts | 235° |
| 2026-04-19 23:46 | 53.71489 | 10.16019 | 2561 ft | 169 kts | 235° |
| 2026-04-19 23:46 | 53.70762 | 10.14536 | 2364 ft | 161 kts | 236° |
| 2026-04-19 23:47 | 53.70059 | 10.13103 | 2135 ft | 156 kts | 236° |
| 2026-04-19 23:47 | 53.69371 | 10.11700 | 1921 ft | 154 kts | 236° |
| 2026-04-19 23:47 | 53.68691 | 10.10315 | 1700 ft | 152 kts | 236° |
| 2026-04-19 23:47 | 53.68016 | 10.08944 | 1516 ft | 152 kts | 235° |
| 2026-04-19 23:48 | 53.67334 | 10.07550 | 1324 ft | 156 kts | 236° |
| 2026-04-19 23:48 | 53.66640 | 10.06128 | 1093 ft | 156 kts | 235° |
| 2026-04-19 23:48 | 53.65955 | 10.04744 | 818 ft | 151 kts | 236° |
| 2026-04-19 23:48 | 53.65307 | 10.03419 | 631 ft | 145 kts | 234° |
| 2026-04-19 23:49 | 53.64661 | 10.02114 | 413 ft | 144 kts | 233° |
| 2026-04-19 23:49 | 53.64018 | 10.00807 | 233 ft | 143 kts | 231° |
| 2026-04-19 23:49 | 53.63592 | 9.99956 | 102 ft | 143 kts | 233° |
| 2026-04-19 23:49 | 53.62995 | 9.98731 | 51 ft | 121 kts | 231° |
| 2026-04-19 23:50 | 53.62567 | 9.97867 | 48 ft | 71 kts | 230° |
| 2026-04-19 23:50 | 53.62353 | 9.97438 | 48 ft | 33 kts | 230° |
| 2026-04-19 23:50 | 53.62264 | 9.97327 | 48 ft | 5 kts | 174° |
| 2026-04-19 23:50 | 53.62257 | 9.97334 | 49 ft | 1 kts | 143° |
| 2026-04-19 23:51 | 53.62230 | 9.97385 | 50 ft | 11 kts | 128° |
| 2026-04-19 23:51 | 53.62185 | 9.97489 | 50 ft | 9 kts | 112° |
| 2026-04-19 23:51 | 53.62191 | 9.97597 | 49 ft | 14 kts | 65° |
| 2026-04-19 23:51 | 53.62269 | 9.97763 | 50 ft | 23 kts | 50° |
| 2026-04-19 23:52 | 53.62371 | 9.97971 | 50 ft | 22 kts | 50° |
| 2026-04-19 23:52 | 53.62476 | 9.98148 | 50 ft | 21 kts | 40° |
| 2026-04-19 23:52 | 53.62574 | 9.98316 | 50 ft | 19 kts | 50° |
| 2026-04-19 23:52 | 53.62657 | 9.98487 | 50 ft | 18 kts | 50° |
| 2026-04-19 23:53 | 53.62736 | 9.98649 | 50 ft | 17 kts | 51° |
| 2026-04-19 23:53 | 53.62811 | 9.98802 | 50 ft | 17 kts | 49° |
| 2026-04-19 23:53 | 53.62885 | 9.98950 | 49 ft | 17 kts | 50° |
| 2026-04-19 23:53 | 53.62962 | 9.99103 | 50 ft | 18 kts | 50° |
| 2026-04-19 23:54 | 53.63039 | 9.99262 | 50 ft | 17 kts | 52° |
| 2026-04-19 23:54 | 53.63108 | 9.99422 | 48 ft | 17 kts | 56° |
| 2026-04-19 23:54 | 53.63179 | 9.99587 | 49 ft | 18 kts | 50° |
| 2026-04-19 23:54 | 53.63267 | 9.99742 | 50 ft | 19 kts | 44° |
| 2026-04-19 23:55 | 53.63354 | 9.99915 | 50 ft | 20 kts | 50° |
| 2026-04-19 23:55 | 53.63428 | 10.00077 | 51 ft | 15 kts | 71° |
| 2026-04-19 23:55 | 53.63367 | 10.00165 | 51 ft | 13 kts | 178° |
| 2026-04-19 23:55 | 53.63298 | 10.00176 | 51 ft | 3 kts | 143° |
| 2026-04-19 23:56 | 53.63291 | 10.00220 | 51 ft | 6 kts | 97° |
| 2026-04-19 23:56 | 53.63293 | 10.00319 | 51 ft | 7 kts | 87° |
| 2026-04-19 23:56 | 53.63294 | 10.00349 | 51 ft | 1 kts | 87° |
| 2026-04-19 23:56 | 53.63294 | 10.00357 | 51 ft | 0 kts | 87° |